Flight Track Log - Related Links

Times and Time Zones

All times are in EDT time to prevent confusion due to time zone crossing. See the TAM3345 flight status page for this flight to view local times or setup timezone preferences in your user account.

Time Position Orientation Groundspeed Altitude Reporting Facility
EDT Latitude Longitude Course Direction KTS MPH feet Rate Location/Type
Tue 09:58:00 AM -20.9037 -44.7879 211° Southwest  Level Estimated
Tue 09:59:00 AM -20.9671 -44.8292 211° Southwest  Level Estimated
Tue 10:00:00 AM -21.0305 -44.8706 211° Southwest  Level Estimated
Tue 10:01:00 AM -21.0939 -44.9120 211° Southwest  Level Estimated
Tue 10:02:00 AM -21.1573 -44.9534 211° Southwest  Level Estimated
Tue 10:03:00 AM -21.2206 -44.9948 211° Southwest  Level Estimated
Tue 10:04:00 AM -21.2840 -45.0363 211° Southwest  Level Estimated
Tue 10:05:00 AM -21.3473 -45.0778 211° Southwest  Level Estimated
Tue 10:06:00 AM -21.4107 -45.1194 211° Southwest  Level Estimated
Tue 10:07:00 AM -21.4740 -45.1610 211° Southwest  Level Estimated
Tue 10:08:00 AM -21.5373 -45.2026 211° Southwest  Level Estimated
Tue 10:09:00 AM -21.6006 -45.2443 211° Southwest  Level Estimated
Tue 10:10:00 AM -21.6639 -45.2860 211° Southwest  Level Estimated
Tue 10:11:00 AM -21.7272 -45.3277 211° Southwest  Level Estimated
Tue 10:12:00 AM -21.7904 -45.3695 212° Southwest  Level Estimated
Tue 10:13:00 AM -21.8537 -45.4113 212° Southwest  Level Estimated
Tue 10:14:00 AM -21.9169 -45.4532 212° Southwest  Level Estimated
Tue 10:15:00 AM -21.9802 -45.4951 212° Southwest  Level Estimated
Tue 10:16:00 AM -22.0434 -45.5370 212° Southwest  Level Estimated
Tue 10:17:00 AM -22.1066 -45.5790 212° Southwest  Level Estimated
Tue 10:18:00 AM -22.1698 -45.6210 212° Southwest  Level Estimated
Tue 10:19:00 AM -22.2330 -45.6630 212° Southwest  Level Estimated
Tue 10:20:00 AM -22.2962 -45.7051 212° Southwest  Level Estimated
Tue 10:21:00 AM -22.3593 -45.7472 212° Southwest  Level Estimated
Tue 10:22:00 AM -22.4225 -45.7893 212° Southwest  Level Estimated
Tue 10:23:00 AM -22.4856 -45.8315 212° Southwest  Level Estimated
Tue 10:24:00 AM -22.5488 -45.8738 212° Southwest  Level Estimated
Tue 10:25:00 AM -22.6119 -45.9160 212° Southwest  Level Estimated
Tue 10:26:00 AM -22.6750 -45.9583 212° Southwest  Level Estimated
Tue 10:27:00 AM -22.7381 -46.0007 212° Southwest  Level Estimated
Tue 10:28:00 AM -22.8012 -46.0431 212° Southwest  Level Estimated
Tue 10:29:00 AM -22.8643 -46.0855 212° Southwest  Level Estimated
Tue 10:30:00 AM -22.9273 -46.1280 212° Southwest  Level Estimated
Tue 10:31:00 AM -22.9904 -46.1705 212° Southwest  Level Estimated
Tue 10:32:00 AM -23.0534 -46.2130 212° Southwest  Level Estimated
Tue 10:33:00 AM -23.1165 -46.2556 212° Southwest  Level Estimated
Tue 10:34:00 AM -23.1795 -46.2982 212° Southwest  Level Estimated
Tue 10:35:00 AM -23.2425 -46.3409 212° Southwest  Level Estimated
Tue 10:36:00 AM -23.3055 -46.3836 212° Southwest  Level Estimated
Tue 10:37:00 AM -23.3685 -46.4263 212° Southwest  Level Estimated
Tue 10:38:00 AM -23.4315 -46.4691 212° Southwest  Level Estimated
Tue 10:39:00 AM -23.4321 -46.4695 212° Southwest  Level Estimated
Tue 10:40:00 AM -23.4321 -46.4695 350° North  Level Estimated
Tue 10:41:00 AM -23.4321 -46.4695 350° North  Level Estimated
Tue 10:42:00 AM -23.4321 -46.4695 350° North  Level Estimated
Tue 10:43:00 AM -23.4321 -46.4695 350° North  Level Estimated
Tue 10:44:00 AM -23.4321 -46.4695 350° North  Level Estimated
Tue 10:45:00 AM -23.4321 -46.4695 350° North  Level Estimated
Tue 10:46:00 AM -23.4321 -46.4695 350° North  Level Estimated
Tue 10:47:00 AM -23.4321 -46.4695 350° North  Level Estimated
Tue 10:48:00 AM -23.4321 -46.4695 350° North  Level Estimated
Tue 10:49:00 AM -23.4321 -46.4695 350° North  Level Estimated
Tue 10:50:00 AM -23.4321 -46.4695 350° North  Level Estimated
Tue 10:51:00 AM -23.4321 -46.4695 350° North  Level Estimated
Tue 10:52:00 AM -23.4321 -46.4695 350° North  Level Estimated
Tue 10:53:00 AM -23.4321 -46.4695 350° North  Level Estimated
Tue 10:54:00 AM -23.4321 -46.4695 350° North  Level Estimated

Login

Don't have an account? Register now (free) for customized features, flight alerts, and more!